sensor_id;sensor_type;location;lat;lon;timestamp;temperature;humidity
12434;DHT22;6281;49.038;8.372;2023-05-29T00:01:56;15.30;99.90
12434;DHT22;6281;49.038;8.372;2023-05-29T00:04:22;15.40;99.90
12434;DHT22;6281;49.038;8.372;2023-05-29T00:06:49;15.30;99.90
12434;DHT22;6281;49.038;8.372;2023-05-29T00:09:17;15.30;99.90
12434;DHT22;6281;49.038;8.372;2023-05-29T00:11:44;15.20;99.90
12434;DHT22;6281;49.038;8.372;2023-05-29T00:14:16;15.10;99.90
12434;DHT22;6281;49.038;8.372;2023-05-29T00:16:45;15.10;99.90
12434;DHT22;6281;49.038;8.372;2023-05-29T00:19:13;15.00;99.90
12434;DHT22;6281;49.038;8.372;2023-05-29T00:21:42;15.10;99.90
12434;DHT22;6281;49.038;8.372;2023-05-29T00:24:09;15.10;99.90
12434;DHT22;6281;49.038;8.372;2023-05-29T00:26:36;15.20;99.90
12434;DHT22;6281;49.038;8.372;2023-05-29T00:29:03;15.20;99.90
12434;DHT22;6281;49.038;8.372;2023-05-29T00:31:30;15.20;99.90
12434;DHT22;6281;49.038;8.372;2023-05-29T00:33:57;15.20;99.90
12434;DHT22;6281;49.038;8.372;2023-05-29T00:36:25;15.20;99.90
12434;DHT22;6281;49.038;8.372;2023-05-29T00:38:54;15.20;99.90
12434;DHT22;6281;49.038;8.372;2023-05-29T00:41:21;15.10;99.90
12434;DHT22;6281;49.038;8.372;2023-05-29T00:43:48;15.10;99.90
12434;DHT22;6281;49.038;8.372;2023-05-29T00:46:15;15.00;99.90
12434;DHT22;6281;49.038;8.372;2023-05-29T00:48:42;14.90;99.90
12434;DHT22;6281;49.038;8.372;2023-05-29T00:51:10;15.00;99.90
12434;DHT22;6281;49.038;8.372;2023-05-29T00:53:40;14.90;99.90
12434;DHT22;6281;49.038;8.372;2023-05-29T00:56:09;14.80;99.90
12434;DHT22;6281;49.038;8.372;2023-05-29T00:58:36;14.60;99.90
12434;DHT22;6281;49.038;8.372;2023-05-29T01:01:04;14.60;99.90
12434;DHT22;6281;49.038;8.372;2023-05-29T01:03:31;14.60;99.90
12434;DHT22;6281;49.038;8.372;2023-05-29T01:05:58;14.50;99.90
12434;DHT22;6281;49.038;8.372;2023-05-29T01:08:26;14.40;99.90
12434;DHT22;6281;49.038;8.372;2023-05-29T01:10:59;14.40;99.90
12434;DHT22;6281;49.038;8.372;2023-05-29T01:13:30;14.10;99.90
12434;DHT22;6281;49.038;8.372;2023-05-29T01:16:03;14.30;99.90
12434;DHT22;6281;49.038;8.372;2023-05-29T01:18:37;14.30;99.90
12434;DHT22;6281;49.038;8.372;2023-05-29T01:21:11;14.30;99.90
12434;DHT22;6281;49.038;8.372;2023-05-29T01:23:53;14.50;99.90
12434;DHT22;6281;49.038;8.372;2023-05-29T01:26:56;14.50;99.90
12434;DHT22;6281;49.038;8.372;2023-05-29T01:29:27;14.40;99.90
12434;DHT22;6281;49.038;8.372;2023-05-29T01:31:57;14.30;99.90
12434;DHT22;6281;49.038;8.372;2023-05-29T01:34:24;14.30;99.90
12434;DHT22;6281;49.038;8.372;2023-05-29T01:36:51;14.40;99.90
12434;DHT22;6281;49.038;8.372;2023-05-29T01:39:19;14.30;99.90
12434;DHT22;6281;49.038;8.372;2023-05-29T01:41:47;14.30;99.90
12434;DHT22;6281;49.038;8.372;2023-05-29T01:44:16;14.20;99.90
12434;DHT22;6281;49.038;8.372;2023-05-29T01:46:44;14.30;99.90
12434;DHT22;6281;49.038;8.372;2023-05-29T01:49:12;14.40;99.90
12434;DHT22;6281;49.038;8.372;2023-05-29T01:51:40;14.30;99.90
12434;DHT22;6281;49.038;8.372;2023-05-29T01:54:07;14.20;99.90
12434;DHT22;6281;49.038;8.372;2023-05-29T01:56:35;14.10;99.90
12434;DHT22;6281;49.038;8.372;2023-05-29T01:59:03;14.10;99.90
12434;DHT22;6281;49.038;8.372;2023-05-29T02:01:32;14.00;99.90
12434;DHT22;6281;49.038;8.372;2023-05-29T02:03:59;13.90;99.90
12434;DHT22;6281;49.038;8.372;2023-05-29T02:06:26;14.00;99.90
12434;DHT22;6281;49.038;8.372;2023-05-29T02:08:53;13.80;99.90
12434;DHT22;6281;49.038;8.372;2023-05-29T02:11:20;13.80;99.90
12434;DHT22;6281;49.038;8.372;2023-05-29T02:13:47;13.90;99.90
12434;DHT22;6281;49.038;8.372;2023-05-29T02:16:14;13.80;99.90
12434;DHT22;6281;49.038;8.372;2023-05-29T02:18:43;13.80;99.90
12434;DHT22;6281;49.038;8.372;2023-05-29T02:21:10;13.90;99.90
12434;DHT22;6281;49.038;8.372;2023-05-29T02:23:38;13.90;99.90
12434;DHT22;6281;49.038;8.372;2023-05-29T02:26:05;13.80;99.90
12434;DHT22;6281;49.038;8.372;2023-05-29T02:28:32;13.90;99.90
12434;DHT22;6281;49.038;8.372;2023-05-29T02:30:59;13.70;99.90
12434;DHT22;6281;49.038;8.372;2023-05-29T02:33:25;13.60;99.90
12434;DHT22;6281;49.038;8.372;2023-05-29T02:35:54;13.50;99.90
12434;DHT22;6281;49.038;8.372;2023-05-29T02:38:21;13.50;99.90
12434;DHT22;6281;49.038;8.372;2023-05-29T02:40:49;13.50;99.90
12434;DHT22;6281;49.038;8.372;2023-05-29T02:43:15;13.20;99.90
12434;DHT22;6281;49.038;8.372;2023-05-29T02:45:42;13.20;99.90
12434;DHT22;6281;49.038;8.372;2023-05-29T02:48:09;13.20;99.90
12434;DHT22;6281;49.038;8.372;2023-05-29T02:50:36;13.30;99.90
12434;DHT22;6281;49.038;8.372;2023-05-29T02:53:04;13.20;99.90
12434;DHT22;6281;49.038;8.372;2023-05-29T02:55:31;13.20;99.90
12434;DHT22;6281;49.038;8.372;2023-05-29T02:58:01;13.30;99.90
12434;DHT22;6281;49.038;8.372;2023-05-29T03:00:29;13.10;99.90
12434;DHT22;6281;49.038;8.372;2023-05-29T03:02:55;13.10;99.90
12434;DHT22;6281;49.038;8.372;2023-05-29T03:05:22;13.30;99.90
12434;DHT22;6281;49.038;8.372;2023-05-29T03:07:49;13.40;99.90
12434;DHT22;6281;49.038;8.372;2023-05-29T03:10:18;13.40;99.90
12434;DHT22;6281;49.038;8.372;2023-05-29T03:12:45;13.30;99.90
12434;DHT22;6281;49.038;8.372;2023-05-29T03:15:12;13.10;99.90
12434;DHT22;6281;49.038;8.372;2023-05-29T03:17:40;13.20;99.90
12434;DHT22;6281;49.038;8.372;2023-05-29T03:20:07;13.20;99.90
12434;DHT22;6281;49.038;8.372;2023-05-29T03:22:36;13.20;99.90
12434;DHT22;6281;49.038;8.372;2023-05-29T03:25:03;13.30;99.90
12434;DHT22;6281;49.038;8.372;2023-05-29T03:27:32;13.20;99.90
12434;DHT22;6281;49.038;8.372;2023-05-29T03:29:59;13.30;99.90
12434;DHT22;6281;49.038;8.372;2023-05-29T03:32:26;13.40;99.90
12434;DHT22;6281;49.038;8.372;2023-05-29T03:34:53;13.20;99.90
12434;DHT22;6281;49.038;8.372;2023-05-29T03:37:21;13.40;99.90
12434;DHT22;6281;49.038;8.372;2023-05-29T03:39:48;13.40;99.90
12434;DHT22;6281;49.038;8.372;2023-05-29T03:42:15;13.40;99.90
12434;DHT22;6281;49.038;8.372;2023-05-29T03:44:43;13.40;99.90
12434;DHT22;6281;49.038;8.372;2023-05-29T03:47:10;13.40;99.90
12434;DHT22;6281;49.038;8.372;2023-05-29T03:49:38;13.30;99.90
12434;DHT22;6281;49.038;8.372;2023-05-29T03:52:05;13.30;99.90
12434;DHT22;6281;49.038;8.372;2023-05-29T03:54:32;13.30;99.90
12434;DHT22;6281;49.038;8.372;2023-05-29T03:56:59;13.20;99.90
12434;DHT22;6281;49.038;8.372;2023-05-29T03:59:26;13.20;99.90
12434;DHT22;6281;49.038;8.372;2023-05-29T04:01:55;13.20;99.90
12434;DHT22;6281;49.038;8.372;2023-05-29T04:04:22;13.20;99.90
12434;DHT22;6281;49.038;8.372;2023-05-29T04:06:49;13.30;99.90
12434;DHT22;6281;49.038;8.372;2023-05-29T04:09:15;13.20;99.90
12434;DHT22;6281;49.038;8.372;2023-05-29T04:11:43;13.20;99.90
12434;DHT22;6281;49.038;8.372;2023-05-29T04:14:10;13.20;99.90
12434;DHT22;6281;49.038;8.372;2023-05-29T04:16:36;13.10;99.90
12434;DHT22;6281;49.038;8.372;2023-05-29T04:19:05;13.10;99.90
12434;DHT22;6281;49.038;8.372;2023-05-29T04:21:32;13.10;99.90
12434;DHT22;6281;49.038;8.372;2023-05-29T04:24:00;13.00;99.90
12434;DHT22;6281;49.038;8.372;2023-05-29T04:26:26;12.80;99.90
12434;DHT22;6281;49.038;8.372;2023-05-29T04:28:53;12.90;99.90
12434;DHT22;6281;49.038;8.372;2023-05-29T04:31:24;12.80;99.90
12434;DHT22;6281;49.038;8.372;2023-05-29T04:33:52;13.10;99.90
12434;DHT22;6281;49.038;8.372;2023-05-29T04:36:23;13.20;99.90
12434;DHT22;6281;49.038;8.372;2023-05-29T04:38:52;13.00;99.90
12434;DHT22;6281;49.038;8.372;2023-05-29T04:41:19;13.00;99.90
12434;DHT22;6281;49.038;8.372;2023-05-29T04:43:49;13.20;99.90
12434;DHT22;6281;49.038;8.372;2023-05-29T04:46:16;13.10;99.90
12434;DHT22;6281;49.038;8.372;2023-05-29T04:48:43;13.30;99.90
12434;DHT22;6281;49.038;8.372;2023-05-29T04:51:10;13.30;99.90
12434;DHT22;6281;49.038;8.372;2023-05-29T04:53:39;13.30;99.90
12434;DHT22;6281;49.038;8.372;2023-05-29T04:56:07;13.40;99.90
12434;DHT22;6281;49.038;8.372;2023-05-29T04:58:33;13.60;99.90
12434;DHT22;6281;49.038;8.372;2023-05-29T05:01:00;13.60;99.90
12434;DHT22;6281;49.038;8.372;2023-05-29T05:03:28;13.70;99.90
12434;DHT22;6281;49.038;8.372;2023-05-29T05:05:56;13.80;99.90
12434;DHT22;6281;49.038;8.372;2023-05-29T05:08:23;13.80;99.90
12434;DHT22;6281;49.038;8.372;2023-05-29T05:10:52;14.00;99.90
12434;DHT22;6281;49.038;8.372;2023-05-29T05:13:19;14.00;99.90
12434;DHT22;6281;49.038;8.372;2023-05-29T05:15:45;14.10;99.90
12434;DHT22;6281;49.038;8.372;2023-05-29T05:18:12;14.20;99.90
12434;DHT22;6281;49.038;8.372;2023-05-29T05:20:40;14.40;99.90
12434;DHT22;6281;49.038;8.372;2023-05-29T05:23:07;14.50;99.90
12434;DHT22;6281;49.038;8.372;2023-05-29T05:25:33;14.60;99.90
12434;DHT22;6281;49.038;8.372;2023-05-29T05:28:02;14.60;99.90
12434;DHT22;6281;49.038;8.372;2023-05-29T05:30:29;14.50;99.90
12434;DHT22;6281;49.038;8.372;2023-05-29T05:32:56;14.40;99.90
12434;DHT22;6281;49.038;8.372;2023-05-29T05:35:24;14.60;99.90
12434;DHT22;6281;49.038;8.372;2023-05-29T05:37:51;14.60;99.90
12434;DHT22;6281;49.038;8.372;2023-05-29T05:40:18;14.70;99.90
12434;DHT22;6281;49.038;8.372;2023-05-29T05:42:45;14.80;99.90
12434;DHT22;6281;49.038;8.372;2023-05-29T05:45:13;14.80;99.90
12434;DHT22;6281;49.038;8.372;2023-05-29T05:47:40;14.90;99.90
12434;DHT22;6281;49.038;8.372;2023-05-29T05:50:07;14.90;99.90
12434;DHT22;6281;49.038;8.372;2023-05-29T05:52:35;15.00;99.90
12434;DHT22;6281;49.038;8.372;2023-05-29T05:55:02;15.00;99.90
12434;DHT22;6281;49.038;8.372;2023-05-29T05:57:29;15.10;99.90
12434;DHT22;6281;49.038;8.372;2023-05-29T05:59:57;15.20;99.90
12434;DHT22;6281;49.038;8.372;2023-05-29T06:02:27;15.30;99.90
12434;DHT22;6281;49.038;8.372;2023-05-29T06:04:53;15.30;99.90
12434;DHT22;6281;49.038;8.372;2023-05-29T06:07:20;15.40;99.90
12434;DHT22;6281;49.038;8.372;2023-05-29T06:09:48;15.60;99.90
12434;DHT22;6281;49.038;8.372;2023-05-29T06:12:15;15.70;99.90
12434;DHT22;6281;49.038;8.372;2023-05-29T06:14:42;15.70;99.90
12434;DHT22;6281;49.038;8.372;2023-05-29T06:17:09;15.60;99.90
12434;DHT22;6281;49.038;8.372;2023-05-29T06:19:38;15.70;99.90
12434;DHT22;6281;49.038;8.372;2023-05-29T06:22:05;15.90;99.90
12434;DHT22;6281;49.038;8.372;2023-05-29T06:24:32;16.00;99.90
12434;DHT22;6281;49.038;8.372;2023-05-29T06:26:59;16.20;99.90
12434;DHT22;6281;49.038;8.372;2023-05-29T06:29:27;16.20;99.90
12434;DHT22;6281;49.038;8.372;2023-05-29T06:31:54;16.20;99.90
12434;DHT22;6281;49.038;8.372;2023-05-29T06:34:20;16.30;99.90
12434;DHT22;6281;49.038;8.372;2023-05-29T06:36:49;16.40;99.90
12434;DHT22;6281;49.038;8.372;2023-05-29T06:39:16;16.40;99.90
12434;DHT22;6281;49.038;8.372;2023-05-29T06:41:45;16.50;99.90
12434;DHT22;6281;49.038;8.372;2023-05-29T06:44:12;16.60;99.90
12434;DHT22;6281;49.038;8.372;2023-05-29T06:46:39;16.80;99.90
12434;DHT22;6281;49.038;8.372;2023-05-29T06:49:06;16.80;99.90
12434;DHT22;6281;49.038;8.372;2023-05-29T06:51:33;16.80;99.90
12434;DHT22;6281;49.038;8.372;2023-05-29T06:54:02;17.10;99.90
12434;DHT22;6281;49.038;8.372;2023-05-29T06:56:29;17.30;99.90
12434;DHT22;6281;49.038;8.372;2023-05-29T06:58:56;17.20;99.90
12434;DHT22;6281;49.038;8.372;2023-05-29T07:01:23;17.50;99.90
12434;DHT22;6281;49.038;8.372;2023-05-29T07:03:51;17.60;99.90
12434;DHT22;6281;49.038;8.372;2023-05-29T07:06:19;17.60;99.90
12434;DHT22;6281;49.038;8.372;2023-05-29T07:08:46;17.90;99.90
12434;DHT22;6281;49.038;8.372;2023-05-29T07:11:14;17.90;99.90
12434;DHT22;6281;49.038;8.372;2023-05-29T07:13:41;18.10;99.90
12434;DHT22;6281;49.038;8.372;2023-05-29T07:16:08;18.10;99.90
12434;DHT22;6281;49.038;8.372;2023-05-29T07:18:35;18.10;99.90
12434;DHT22;6281;49.038;8.372;2023-05-29T07:21:02;18.10;99.90
12434;DHT22;6281;49.038;8.372;2023-05-29T07:23:29;18.20;99.90
12434;DHT22;6281;49.038;8.372;2023-05-29T07:25:56;18.30;99.90
12434;DHT22;6281;49.038;8.372;2023-05-29T07:28:24;18.20;99.90
12434;DHT22;6281;49.038;8.372;2023-05-29T07:30:51;18.40;99.90
12434;DHT22;6281;49.038;8.372;2023-05-29T07:33:18;18.50;99.90
12434;DHT22;6281;49.038;8.372;2023-05-29T07:35:45;18.60;99.90
12434;DHT22;6281;49.038;8.372;2023-05-29T07:38:11;18.60;99.90
12434;DHT22;6281;49.038;8.372;2023-05-29T07:40:38;18.90;99.90
12434;DHT22;6281;49.038;8.372;2023-05-29T07:43:05;18.80;99.90
12434;DHT22;6281;49.038;8.372;2023-05-29T07:45:34;18.80;99.90
12434;DHT22;6281;49.038;8.372;2023-05-29T07:48:00;18.90;99.90
12434;DHT22;6281;49.038;8.372;2023-05-29T07:50:27;19.00;99.90
12434;DHT22;6281;49.038;8.372;2023-05-29T07:52:54;19.10;99.90
12434;DHT22;6281;49.038;8.372;2023-05-29T07:55:22;19.20;99.90
12434;DHT22;6281;49.038;8.372;2023-05-29T07:57:49;19.30;99.90
12434;DHT22;6281;49.038;8.372;2023-05-29T08:00:16;19.30;99.90
12434;DHT22;6281;49.038;8.372;2023-05-29T08:02:45;19.30;99.90
12434;DHT22;6281;49.038;8.372;2023-05-29T08:05:12;19.30;99.90
12434;DHT22;6281;49.038;8.372;2023-05-29T08:07:39;19.50;99.90
12434;DHT22;6281;49.038;8.372;2023-05-29T08:10:07;19.80;99.90
12434;DHT22;6281;49.038;8.372;2023-05-29T08:12:34;19.90;99.90
12434;DHT22;6281;49.038;8.372;2023-05-29T08:15:01;20.00;99.90
12434;DHT22;6281;49.038;8.372;2023-05-29T08:17:28;20.10;99.90
12434;DHT22;6281;49.038;8.372;2023-05-29T08:19:57;20.10;99.90
12434;DHT22;6281;49.038;8.372;2023-05-29T08:22:28;20.20;99.90
12434;DHT22;6281;49.038;8.372;2023-05-29T08:24:56;20.30;99.90
12434;DHT22;6281;49.038;8.372;2023-05-29T08:27:23;20.60;99.90
12434;DHT22;6281;49.038;8.372;2023-05-29T08:29:50;20.70;99.90
12434;DHT22;6281;49.038;8.372;2023-05-29T08:32:16;20.70;99.90
12434;DHT22;6281;49.038;8.372;2023-05-29T08:34:43;20.70;99.90
12434;DHT22;6281;49.038;8.372;2023-05-29T08:37:13;20.40;99.90
12434;DHT22;6281;49.038;8.372;2023-05-29T08:39:39;21.00;99.90
12434;DHT22;6281;49.038;8.372;2023-05-29T08:42:10;21.20;99.90
12434;DHT22;6281;49.038;8.372;2023-05-29T08:44:40;21.20;99.90
12434;DHT22;6281;49.038;8.372;2023-05-29T08:47:07;21.30;99.90
12434;DHT22;6281;49.038;8.372;2023-05-29T08:49:40;21.40;99.90
12434;DHT22;6281;49.038;8.372;2023-05-29T08:52:11;21.50;99.90
12434;DHT22;6281;49.038;8.372;2023-05-29T08:54:42;21.70;99.90
12434;DHT22;6281;49.038;8.372;2023-05-29T08:57:11;21.70;99.90
12434;DHT22;6281;49.038;8.372;2023-05-29T08:59:41;21.70;99.90
12434;DHT22;6281;49.038;8.372;2023-05-29T09:02:09;21.70;99.90
12434;DHT22;6281;49.038;8.372;2023-05-29T09:04:37;21.80;99.90
12434;DHT22;6281;49.038;8.372;2023-05-29T09:07:04;22.00;99.90
12434;DHT22;6281;49.038;8.372;2023-05-29T09:09:34;22.40;99.90
12434;DHT22;6281;49.038;8.372;2023-05-29T09:12:03;22.50;99.90
12434;DHT22;6281;49.038;8.372;2023-05-29T09:14:34;22.40;99.90
12434;DHT22;6281;49.038;8.372;2023-05-29T09:17:02;22.60;99.90
12434;DHT22;6281;49.038;8.372;2023-05-29T09:19:29;22.80;99.90
12434;DHT22;6281;49.038;8.372;2023-05-29T09:22:03;23.20;99.90
12434;DHT22;6281;49.038;8.372;2023-05-29T09:24:32;23.30;99.90
12434;DHT22;6281;49.038;8.372;2023-05-29T09:27:00;23.10;99.90
12434;DHT22;6281;49.038;8.372;2023-05-29T09:29:30;23.30;99.90
12434;DHT22;6281;49.038;8.372;2023-05-29T09:31:58;23.50;99.90
12434;DHT22;6281;49.038;8.372;2023-05-29T09:34:26;23.90;99.40
12434;DHT22;6281;49.038;8.372;2023-05-29T09:36:53;24.10;99.90
12434;DHT22;6281;49.038;8.372;2023-05-29T09:39:22;24.10;94.00
12434;DHT22;6281;49.038;8.372;2023-05-29T09:41:48;24.20;98.20
12434;DHT22;6281;49.038;8.372;2023-05-29T09:44:16;24.60;96.40
12434;DHT22;6281;49.038;8.372;2023-05-29T09:46:44;24.60;97.60
12434;DHT22;6281;49.038;8.372;2023-05-29T09:49:15;24.60;94.10
12434;DHT22;6281;49.038;8.372;2023-05-29T09:51:42;24.60;96.50
12434;DHT22;6281;49.038;8.372;2023-05-29T09:54:14;24.90;92.80
12434;DHT22;6281;49.038;8.372;2023-05-29T09:56:43;25.40;91.70
12434;DHT22;6281;49.038;8.372;2023-05-29T09:59:11;25.20;92.20
12434;DHT22;6281;49.038;8.372;2023-05-29T10:01:40;26.00;79.30
12434;DHT22;6281;49.038;8.372;2023-05-29T10:04:11;25.80;88.30
12434;DHT22;6281;49.038;8.372;2023-05-29T10:06:43;26.50;78.70
12434;DHT22;6281;49.038;8.372;2023-05-29T10:09:12;26.10;83.70
12434;DHT22;6281;49.038;8.372;2023-05-29T10:11:43;27.70;70.90
12434;DHT22;6281;49.038;8.372;2023-05-29T10:14:14;29.30;57.80
12434;DHT22;6281;49.038;8.372;2023-05-29T10:16:43;30.60;57.50
12434;DHT22;6281;49.038;8.372;2023-05-29T10:19:24;30.60;51.60
12434;DHT22;6281;49.038;8.372;2023-05-29T10:21:53;30.20;53.80
12434;DHT22;6281;49.038;8.372;2023-05-29T10:24:21;30.80;50.40
12434;DHT22;6281;49.038;8.372;2023-05-29T10:26:49;30.20;47.90
12434;DHT22;6281;49.038;8.372;2023-05-29T10:29:22;31.40;47.10
12434;DHT22;6281;49.038;8.372;2023-05-29T10:32:03;30.10;44.70
12434;DHT22;6281;49.038;8.372;2023-05-29T10:34:39;30.10;46.30
12434;DHT22;6281;49.038;8.372;2023-05-29T10:37:09;30.60;45.50
12434;DHT22;6281;49.038;8.372;2023-05-29T10:39:42;32.10;45.20
12434;DHT22;6281;49.038;8.372;2023-05-29T10:42:43;30.90;43.30
12434;DHT22;6281;49.038;8.372;2023-05-29T10:45:10;29.90;45.60
12434;DHT22;6281;49.038;8.372;2023-05-29T10:47:38;29.80;47.70
12434;DHT22;6281;49.038;8.372;2023-05-29T10:50:06;29.60;45.60
12434;DHT22;6281;49.038;8.372;2023-05-29T10:52:34;29.70;47.20
12434;DHT22;6281;49.038;8.372;2023-05-29T10:55:01;29.20;48.60
12434;DHT22;6281;49.038;8.372;2023-05-29T10:57:30;29.10;48.20
12434;DHT22;6281;49.038;8.372;2023-05-29T11:00:05;28.90;51.70
12434;DHT22;6281;49.038;8.372;2023-05-29T11:02:39;28.60;50.70
12434;DHT22;6281;49.038;8.372;2023-05-29T11:05:22;29.20;47.10
12434;DHT22;6281;49.038;8.372;2023-05-29T11:07:56;28.90;48.50
12434;DHT22;6281;49.038;8.372;2023-05-29T11:10:41;29.20;49.40
12434;DHT22;6281;49.038;8.372;2023-05-29T11:13:08;29.10;50.10
12434;DHT22;6281;49.038;8.372;2023-05-29T11:15:36;28.90;47.20
12434;DHT22;6281;49.038;8.372;2023-05-29T11:18:06;29.50;47.90
12434;DHT22;6281;49.038;8.372;2023-05-29T11:20:43;30.10;41.60
12434;DHT22;6281;49.038;8.372;2023-05-29T11:23:15;28.70;45.10
12434;DHT22;6281;49.038;8.372;2023-05-29T11:25:44;29.40;47.50
12434;DHT22;6281;49.038;8.372;2023-05-29T11:28:12;30.20;41.30
12434;DHT22;6281;49.038;8.372;2023-05-29T11:30:44;30.00;45.60
12434;DHT22;6281;49.038;8.372;2023-05-29T11:33:19;29.50;44.70
12434;DHT22;6281;49.038;8.372;2023-05-29T11:35:52;29.50;44.70
12434;DHT22;6281;49.038;8.372;2023-05-29T11:38:20;29.10;47.90
12434;DHT22;6281;49.038;8.372;2023-05-29T11:40:47;29.20;44.40
12434;DHT22;6281;49.038;8.372;2023-05-29T11:43:14;29.30;44.30
12434;DHT22;6281;49.038;8.372;2023-05-29T11:45:41;28.90;44.10
12434;DHT22;6281;49.038;8.372;2023-05-29T11:48:08;29.20;46.50
12434;DHT22;6281;49.038;8.372;2023-05-29T11:50:36;29.50;45.60
12434;DHT22;6281;49.038;8.372;2023-05-29T11:53:06;29.80;41.00
12434;DHT22;6281;49.038;8.372;2023-05-29T11:55:33;29.90;43.60
12434;DHT22;6281;49.038;8.372;2023-05-29T11:58:01;30.30;43.50
12434;DHT22;6281;49.038;8.372;2023-05-29T12:00:31;30.40;39.40
12434;DHT22;6281;49.038;8.372;2023-05-29T12:02:59;29.80;37.50
12434;DHT22;6281;49.038;8.372;2023-05-29T12:05:29;29.60;40.00
12434;DHT22;6281;49.038;8.372;2023-05-29T12:07:57;30.30;45.90
12434;DHT22;6281;49.038;8.372;2023-05-29T12:10:28;30.40;37.90
12434;DHT22;6281;49.038;8.372;2023-05-29T12:12:56;30.20;39.10
12434;DHT22;6281;49.038;8.372;2023-05-29T12:15:23;30.70;39.80
12434;DHT22;6281;49.038;8.372;2023-05-29T12:17:51;30.40;37.20
12434;DHT22;6281;49.038;8.372;2023-05-29T12:20:19;30.50;39.10
12434;DHT22;6281;49.038;8.372;2023-05-29T12:22:48;30.50;40.10
12434;DHT22;6281;49.038;8.372;2023-05-29T12:25:16;30.80;34.30
12434;DHT22;6281;49.038;8.372;2023-05-29T12:27:45;30.90;36.20
12434;DHT22;6281;49.038;8.372;2023-05-29T12:30:13;30.20;37.20
12434;DHT22;6281;49.038;8.372;2023-05-29T12:32:42;30.40;34.90
12434;DHT22;6281;49.038;8.372;2023-05-29T12:35:17;30.30;33.50
12434;DHT22;6281;49.038;8.372;2023-05-29T12:37:45;30.20;35.60
12434;DHT22;6281;49.038;8.372;2023-05-29T12:40:16;30.40;37.80
12434;DHT22;6281;49.038;8.372;2023-05-29T12:42:44;31.10;33.50
12434;DHT22;6281;49.038;8.372;2023-05-29T12:45:11;30.90;35.90
12434;DHT22;6281;49.038;8.372;2023-05-29T12:47:53;30.30;36.60
12434;DHT22;6281;49.038;8.372;2023-05-29T12:50:22;30.30;36.10
12434;DHT22;6281;49.038;8.372;2023-05-29T12:53:00;30.40;36.30
12434;DHT22;6281;49.038;8.372;2023-05-29T12:55:29;30.80;37.50
12434;DHT22;6281;49.038;8.372;2023-05-29T12:57:57;30.50;33.30
12434;DHT22;6281;49.038;8.372;2023-05-29T13:00:24;30.60;37.60
12434;DHT22;6281;49.038;8.372;2023-05-29T13:02:51;30.70;34.90
12434;DHT22;6281;49.038;8.372;2023-05-29T13:05:18;30.80;32.30
12434;DHT22;6281;49.038;8.372;2023-05-29T13:07:48;30.40;30.90
12434;DHT22;6281;49.038;8.372;2023-05-29T13:10:15;30.60;30.50
12434;DHT22;6281;49.038;8.372;2023-05-29T13:12:43;30.70;32.10
12434;DHT22;6281;49.038;8.372;2023-05-29T13:15:13;31.10;34.80
12434;DHT22;6281;49.038;8.372;2023-05-29T13:17:41;31.00;33.20
12434;DHT22;6281;49.038;8.372;2023-05-29T13:20:09;30.90;30.50
12434;DHT22;6281;49.038;8.372;2023-05-29T13:22:37;30.90;35.10
12434;DHT22;6281;49.038;8.372;2023-05-29T13:25:06;30.90;36.20
12434;DHT22;6281;49.038;8.372;2023-05-29T13:27:35;30.70;31.60
12434;DHT22;6281;49.038;8.372;2023-05-29T13:30:03;30.80;35.20
12434;DHT22;6281;49.038;8.372;2023-05-29T13:32:32;31.10;33.00
12434;DHT22;6281;49.038;8.372;2023-05-29T13:34:59;30.80;30.10
12434;DHT22;6281;49.038;8.372;2023-05-29T13:37:26;30.80;31.90
12434;DHT22;6281;49.038;8.372;2023-05-29T13:39:54;30.80;32.60
12434;DHT22;6281;49.038;8.372;2023-05-29T13:42:21;30.70;33.70
12434;DHT22;6281;49.038;8.372;2023-05-29T13:44:49;30.60;30.50
12434;DHT22;6281;49.038;8.372;2023-05-29T13:47:16;30.50;30.70
12434;DHT22;6281;49.038;8.372;2023-05-29T13:49:44;30.40;30.90
12434;DHT22;6281;49.038;8.372;2023-05-29T13:52:11;31.00;31.20
12434;DHT22;6281;49.038;8.372;2023-05-29T13:54:38;31.10;33.80
12434;DHT22;6281;49.038;8.372;2023-05-29T13:57:06;30.90;33.60
12434;DHT22;6281;49.038;8.372;2023-05-29T13:59:34;30.80;32.30
12434;DHT22;6281;49.038;8.372;2023-05-29T14:02:01;30.80;31.50
12434;DHT22;6281;49.038;8.372;2023-05-29T14:04:29;31.00;34.60
12434;DHT22;6281;49.038;8.372;2023-05-29T14:06:57;31.10;36.60
12434;DHT22;6281;49.038;8.372;2023-05-29T14:09:24;31.00;33.70
12434;DHT22;6281;49.038;8.372;2023-05-29T14:11:53;30.90;32.40
12434;DHT22;6281;49.038;8.372;2023-05-29T14:14:21;30.80;32.90
12434;DHT22;6281;49.038;8.372;2023-05-29T14:16:49;30.90;32.00
12434;DHT22;6281;49.038;8.372;2023-05-29T14:19:17;30.90;32.20
12434;DHT22;6281;49.038;8.372;2023-05-29T14:21:44;31.20;34.00
12434;DHT22;6281;49.038;8.372;2023-05-29T14:24:12;31.00;33.30
12434;DHT22;6281;49.038;8.372;2023-05-29T14:26:41;31.20;35.00
12434;DHT22;6281;49.038;8.372;2023-05-29T14:29:11;31.30;33.40
12434;DHT22;6281;49.038;8.372;2023-05-29T14:31:39;31.00;34.80
12434;DHT22;6281;49.038;8.372;2023-05-29T14:34:05;30.80;30.80
12434;DHT22;6281;49.038;8.372;2023-05-29T14:36:33;30.80;33.90
12434;DHT22;6281;49.038;8.372;2023-05-29T14:39:01;30.90;30.90
12434;DHT22;6281;49.038;8.372;2023-05-29T14:41:29;30.60;32.70
12434;DHT22;6281;49.038;8.372;2023-05-29T14:43:56;31.00;32.30
12434;DHT22;6281;49.038;8.372;2023-05-29T14:46:24;31.10;31.80
12434;DHT22;6281;49.038;8.372;2023-05-29T14:48:52;31.00;32.70
12434;DHT22;6281;49.038;8.372;2023-05-29T14:51:19;31.20;33.60
12434;DHT22;6281;49.038;8.372;2023-05-29T14:53:46;30.90;31.40
12434;DHT22;6281;49.038;8.372;2023-05-29T14:56:13;31.30;31.40
12434;DHT22;6281;49.038;8.372;2023-05-29T14:58:42;31.30;31.90
12434;DHT22;6281;49.038;8.372;2023-05-29T15:01:08;31.40;30.80
12434;DHT22;6281;49.038;8.372;2023-05-29T15:03:35;30.90;32.60
12434;DHT22;6281;49.038;8.372;2023-05-29T15:06:02;30.80;32.70
12434;DHT22;6281;49.038;8.372;2023-05-29T15:08:30;30.90;32.70
12434;DHT22;6281;49.038;8.372;2023-05-29T15:11:00;31.30;33.00
12434;DHT22;6281;49.038;8.372;2023-05-29T15:13:28;31.20;31.30
12434;DHT22;6281;49.038;8.372;2023-05-29T15:15:56;30.50;30.90
12434;DHT22;6281;49.038;8.372;2023-05-29T15:18:25;30.70;32.00
12434;DHT22;6281;49.038;8.372;2023-05-29T15:20:51;31.20;31.20
12434;DHT22;6281;49.038;8.372;2023-05-29T15:23:19;31.10;32.20
12434;DHT22;6281;49.038;8.372;2023-05-29T15:25:48;30.90;31.20
12434;DHT22;6281;49.038;8.372;2023-05-29T15:28:15;30.90;29.40
12434;DHT22;6281;49.038;8.372;2023-05-29T15:30:42;30.60;30.30
12434;DHT22;6281;49.038;8.372;2023-05-29T15:33:10;30.40;28.00
12434;DHT22;6281;49.038;8.372;2023-05-29T15:35:37;30.50;29.60
12434;DHT22;6281;49.038;8.372;2023-05-29T15:38:06;30.70;31.00
12434;DHT22;6281;49.038;8.372;2023-05-29T15:40:33;31.40;30.30
12434;DHT22;6281;49.038;8.372;2023-05-29T15:43:00;31.70;30.00
12434;DHT22;6281;49.038;8.372;2023-05-29T15:45:26;30.90;30.80
12434;DHT22;6281;49.038;8.372;2023-05-29T15:47:53;30.70;29.10
12434;DHT22;6281;49.038;8.372;2023-05-29T15:50:21;30.30;28.50
12434;DHT22;6281;49.038;8.372;2023-05-29T15:52:48;30.50;29.60